createdAt,value
2023-04-07T00:00:32.507Z,512.00
2023-04-07T00:01:32.624Z,509.00
2023-04-07T00:02:32.561Z,510.00
2023-04-07T00:03:32.605Z,511.00
2023-04-07T00:04:32.726Z,513.00
2023-04-07T00:05:32.594Z,511.00
2023-04-07T00:06:32.529Z,511.00
2023-04-07T00:07:33.872Z,511.00
2023-04-07T00:08:32.563Z,509.00
2023-04-07T00:09:32.523Z,507.00
2023-04-07T00:10:32.544Z,506.00
2023-04-07T00:11:32.494Z,508.00
2023-04-07T00:12:32.484Z,506.00
2023-04-07T00:13:33.065Z,503.00
2023-04-07T00:14:32.588Z,502.00
2023-04-07T00:15:32.504Z,502.00
2023-04-07T00:16:32.507Z,499.00
2023-04-07T00:17:32.601Z,500.00
2023-04-07T00:18:32.495Z,502.00
2023-04-07T00:19:32.457Z,458.00
2023-04-07T00:20:32.426Z,494.00
2023-04-07T00:21:32.460Z,506.00
2023-04-07T00:22:32.417Z,506.00
2023-04-07T00:23:33.088Z,499.00
2023-04-07T00:24:34.579Z,498.00
2023-04-07T00:25:32.573Z,484.00
2023-04-07T00:26:32.432Z,501.00
2023-04-07T00:27:32.491Z,502.00
2023-04-07T00:28:32.469Z,508.00
2023-04-07T00:29:32.492Z,500.00
2023-04-07T00:30:32.561Z,504.00
2023-04-07T00:31:32.585Z,501.00
2023-04-07T00:32:33.651Z,501.00
2023-04-07T00:33:32.564Z,500.00
2023-04-07T00:34:32.609Z,502.00
2023-04-07T00:35:32.576Z,502.00
2023-04-07T00:36:32.563Z,504.00
2023-04-07T00:37:32.529Z,508.00
2023-04-07T00:38:32.712Z,509.00
2023-04-07T00:39:33.040Z,511.00
2023-04-07T00:40:32.536Z,511.00
2023-04-07T00:41:32.512Z,509.00
2023-04-07T00:42:32.504Z,510.00
2023-04-07T00:43:32.497Z,508.00
2023-04-07T00:44:32.506Z,509.00
2023-04-07T00:45:32.481Z,510.00
2023-04-07T00:46:32.452Z,507.00
2023-04-07T00:47:32.482Z,507.00
2023-04-07T00:48:32.441Z,502.00
2023-04-07T00:49:32.450Z,502.00
2023-04-07T00:50:32.424Z,502.00
2023-04-07T00:51:32.451Z,502.00
2023-04-07T00:52:32.451Z,501.00
2023-04-07T00:53:32.424Z,499.00
2023-04-07T00:54:32.454Z,498.00
2023-04-07T00:55:32.421Z,497.00
2023-04-07T00:56:32.429Z,497.00
2023-04-07T00:57:32.391Z,498.00
2023-04-07T00:58:32.368Z,499.00
2023-04-07T00:59:32.388Z,499.00
2023-04-07T01:00:32.394Z,499.00
2023-04-07T01:01:32.587Z,499.00
2023-04-07T01:02:32.561Z,496.00
2023-04-07T01:03:32.697Z,497.00
2023-04-07T01:04:32.552Z,495.00
2023-04-07T01:05:32.332Z,494.00
2023-04-07T01:06:32.367Z,497.00
2023-04-07T01:07:32.328Z,498.00
2023-04-07T01:08:32.352Z,500.00
2023-04-07T01:09:32.306Z,502.00
2023-04-07T01:10:33.092Z,504.00
2023-04-07T01:11:32.304Z,503.00
2023-04-07T01:12:32.270Z,508.00
2023-04-07T01:13:32.294Z,507.00
2023-04-07T01:14:32.306Z,508.00
2023-04-07T01:15:32.274Z,506.00
2023-04-07T01:16:32.348Z,506.00
2023-04-07T01:17:32.272Z,504.00
2023-04-07T01:18:32.220Z,505.00
2023-04-07T01:19:32.246Z,512.00
2023-04-07T01:20:32.253Z,504.00
2023-04-07T01:21:32.219Z,519.00
2023-04-07T01:22:32.250Z,468.00
2023-04-07T01:23:32.225Z,489.00
2023-04-07T01:24:32.229Z,501.00
2023-04-07T01:25:32.218Z,501.00
2023-04-07T01:26:32.233Z,503.00
2023-04-07T01:27:32.204Z,489.00
2023-04-07T01:28:35.063Z,511.00
2023-04-07T01:29:32.164Z,516.00
2023-04-07T01:30:32.200Z,514.00
2023-04-07T01:31:32.230Z,510.00
2023-04-07T01:32:32.185Z,560.00
2023-04-07T01:33:32.152Z,501.00
2023-04-07T01:34:32.163Z,500.00
2023-04-07T01:35:32.186Z,518.00
2023-04-07T01:36:32.234Z,525.00
2023-04-07T01:37:34.055Z,508.00
2023-04-07T01:38:33.102Z,512.00
2023-04-07T01:39:33.072Z,511.00
2023-04-07T01:40:33.552Z,512.00
2023-04-07T01:41:32.090Z,511.00
2023-04-07T01:42:32.052Z,509.00
2023-04-07T01:43:32.084Z,508.00
2023-04-07T01:44:32.113Z,506.00
2023-04-07T01:45:32.117Z,505.00
2023-04-07T01:46:32.108Z,505.00
2023-04-07T01:47:32.122Z,503.00
2023-04-07T01:48:32.072Z,504.00
2023-04-07T01:49:32.034Z,504.00
2023-04-07T01:50:32.165Z,509.00
2023-04-07T01:51:32.174Z,517.00
2023-04-07T01:52:37.156Z,450.00
2023-04-07T01:53:32.140Z,488.00
2023-04-07T01:54:32.076Z,481.00
2023-04-07T01:55:32.141Z,493.00
2023-04-07T01:56:32.071Z,496.00
2023-04-07T01:57:32.116Z,502.00
2023-04-07T01:58:32.158Z,517.00
2023-04-07T01:59:32.164Z,506.00
2023-04-07T02:00:32.082Z,509.00
2023-04-07T02:01:32.209Z,505.00
2023-04-07T02:02:32.233Z,510.00
2023-04-07T02:03:32.113Z,509.00
2023-04-07T02:04:32.132Z,510.00
2023-04-07T02:05:32.122Z,508.00
2023-04-07T02:06:32.201Z,509.00
2023-04-07T02:07:32.065Z,501.00
2023-04-07T02:08:32.348Z,498.00
2023-04-07T02:09:32.186Z,487.00
2023-04-07T02:10:32.753Z,496.00
2023-04-07T02:11:32.134Z,507.00
2023-04-07T02:12:32.200Z,502.00
2023-04-07T02:13:32.163Z,505.00
2023-04-07T02:14:32.223Z,504.00
2023-04-07T02:15:32.211Z,506.00
2023-04-07T02:16:32.398Z,493.00
2023-04-07T02:17:32.264Z,502.00
2023-04-07T02:18:32.420Z,501.00
2023-04-07T02:19:32.318Z,499.00
2023-04-07T02:20:33.111Z,504.00
2023-04-07T02:21:32.310Z,498.00
2023-04-07T02:22:32.340Z,498.00
2023-04-07T02:23:32.433Z,500.00
2023-04-07T02:24:32.516Z,502.00
2023-04-07T02:25:32.542Z,503.00
2023-04-07T02:26:34.238Z,515.00
2023-04-07T02:27:33.198Z,504.00
2023-04-07T02:28:32.498Z,507.00
2023-04-07T02:29:32.494Z,501.00
2023-04-07T02:30:32.470Z,506.00
2023-04-07T02:31:32.540Z,507.00
2023-04-07T02:32:32.493Z,505.00
2023-04-07T02:33:32.432Z,518.00
2023-04-07T02:34:33.157Z,504.00
2023-04-07T02:35:32.424Z,516.00
2023-04-07T02:36:32.504Z,491.00
2023-04-07T02:37:32.446Z,492.00
2023-04-07T02:38:33.067Z,493.00
2023-04-07T02:39:32.422Z,496.00
2023-04-07T02:40:32.387Z,491.00
2023-04-07T02:41:32.379Z,490.00
2023-04-07T02:42:32.375Z,496.00
2023-04-07T02:43:32.361Z,501.00
2023-04-07T02:44:32.399Z,500.00
2023-04-07T02:45:32.372Z,504.00
2023-04-07T02:46:32.481Z,504.00
2023-04-07T02:47:32.405Z,503.00
2023-04-07T02:48:32.374Z,501.00
2023-04-07T02:49:32.337Z,505.00
2023-04-07T02:50:33.226Z,504.00
2023-04-07T02:51:32.376Z,506.00
2023-04-07T02:52:32.376Z,505.00
2023-04-07T02:53:32.411Z,507.00
2023-04-07T02:54:32.266Z,505.00
2023-04-07T02:55:32.283Z,504.00
2023-04-07T02:56:32.317Z,503.00
2023-04-07T02:57:33.134Z,505.00
2023-04-07T02:58:32.247Z,510.00
2023-04-07T02:59:32.260Z,489.00
2023-04-07T03:00:32.292Z,494.00
2023-04-07T03:01:32.381Z,499.00
2023-04-07T03:02:32.475Z,500.00
2023-04-07T03:03:32.325Z,501.00
2023-04-07T03:04:32.259Z,499.00
2023-04-07T03:05:32.223Z,502.00
2023-04-07T03:06:32.252Z,503.00
2023-04-07T03:07:32.250Z,503.00
2023-04-07T03:08:33.114Z,499.00
2023-04-07T03:09:32.191Z,501.00
2023-04-07T03:10:32.158Z,497.00
2023-04-07T03:11:32.172Z,497.00
2023-04-07T03:12:32.143Z,498.00
2023-04-07T03:13:32.181Z,499.00
2023-04-07T03:14:32.140Z,485.00
2023-04-07T03:15:32.144Z,488.00
2023-04-07T03:16:32.221Z,480.00
2023-04-07T03:17:32.223Z,497.00
2023-04-07T03:18:32.112Z,492.00
2023-04-07T03:19:32.113Z,497.00
2023-04-07T03:20:32.604Z,513.00
2023-04-07T03:21:32.215Z,506.00
2023-04-07T03:22:32.095Z,498.00
2023-04-07T03:23:32.093Z,505.00
2023-04-07T03:24:32.121Z,500.00
2023-04-07T03:25:32.126Z,498.00
2023-04-07T03:26:32.149Z,499.00
2023-04-07T03:27:32.166Z,502.00
2023-04-07T03:28:32.187Z,501.00
2023-04-07T03:29:32.207Z,505.00
2023-04-07T03:30:32.388Z,495.00
2023-04-07T03:31:32.244Z,498.00
2023-04-07T03:32:32.439Z,497.00
2023-04-07T03:33:32.285Z,499.00
2023-04-07T03:34:32.305Z,497.00
2023-04-07T03:35:32.716Z,497.00
2023-04-07T03:36:32.383Z,496.00
2023-04-07T03:37:33.131Z,496.00
2023-04-07T03:38:32.485Z,495.00
2023-04-07T03:39:32.550Z,499.00
2023-04-07T03:40:32.567Z,499.00
2023-04-07T03:41:32.593Z,500.00
2023-04-07T03:42:32.660Z,499.00
2023-04-07T03:43:32.622Z,485.00
2023-04-07T03:44:32.698Z,490.00
2023-04-07T03:45:32.662Z,505.00
2023-04-07T03:46:33.618Z,504.00
2023-04-07T03:47:32.709Z,495.00
2023-04-07T03:48:32.670Z,430.00
2023-04-07T03:49:32.757Z,486.00
2023-04-07T03:50:32.708Z,487.00
2023-04-07T03:51:32.783Z,493.00
2023-04-07T03:52:35.605Z,489.00
2023-04-07T03:53:32.764Z,493.00
2023-04-07T03:54:32.783Z,478.00
2023-04-07T03:55:32.787Z,493.00
2023-04-07T03:56:33.644Z,493.00
2023-04-07T03:57:32.727Z,496.00
2023-04-07T03:58:32.692Z,498.00
2023-04-07T03:59:32.721Z,494.00
2023-04-07T04:00:32.753Z,495.00
2023-04-07T04:01:32.733Z,495.00
2023-04-07T04:02:32.772Z,497.00
2023-04-07T04:03:32.822Z,495.00
2023-04-07T04:04:32.712Z,500.00
2023-04-07T04:05:32.669Z,500.00
2023-04-07T04:06:32.668Z,494.00
2023-04-07T04:07:32.711Z,499.00
2023-04-07T04:08:32.679Z,491.00
2023-04-07T04:09:32.660Z,499.00
2023-04-07T04:10:32.616Z,505.00
2023-04-07T04:11:32.649Z,500.00
2023-04-07T04:12:32.801Z,497.00
2023-04-07T04:13:32.616Z,495.00
2023-04-07T04:14:32.674Z,498.00
2023-04-07T04:15:32.633Z,495.00
2023-04-07T04:16:32.672Z,499.00
2023-04-07T04:17:32.636Z,500.00
2023-04-07T04:18:32.617Z,501.00
2023-04-07T04:19:32.614Z,501.00
2023-04-07T04:20:32.602Z,502.00
2023-04-07T04:21:32.621Z,500.00
2023-04-07T04:22:32.543Z,499.00
2023-04-07T04:23:32.616Z,498.00
2023-04-07T04:24:32.587Z,499.00
2023-04-07T04:25:32.538Z,497.00
2023-04-07T04:26:32.515Z,499.00
2023-04-07T04:27:32.557Z,501.00
2023-04-07T04:28:32.544Z,502.00
2023-04-07T04:29:33.024Z,501.00
2023-04-07T04:30:32.519Z,500.00
2023-04-07T04:31:32.582Z,502.00
2023-04-07T04:32:32.570Z,504.00
2023-04-07T04:33:32.539Z,501.00
2023-04-07T04:34:32.490Z,504.00
2023-04-07T04:35:32.477Z,503.00
2023-04-07T04:36:32.543Z,502.00
2023-04-07T04:37:32.459Z,504.00
2023-04-07T04:38:32.480Z,508.00
2023-04-07T04:39:32.491Z,507.00
2023-04-07T04:40:32.460Z,508.00
2023-04-07T04:41:32.520Z,508.00
2023-04-07T04:42:32.499Z,507.00
2023-04-07T04:43:32.469Z,511.00
2023-04-07T04:44:32.442Z,511.00
2023-04-07T04:45:32.392Z,512.00
2023-04-07T04:46:32.468Z,514.00
2023-04-07T04:47:32.437Z,514.00
2023-04-07T04:48:32.394Z,513.00
2023-04-07T04:49:32.361Z,511.00
2023-04-07T04:50:32.429Z,512.00
2023-04-07T04:51:32.412Z,517.00
2023-04-07T04:52:32.630Z,516.00
2023-04-07T04:53:32.551Z,512.00
2023-04-07T04:54:32.423Z,513.00
2023-04-07T04:55:32.487Z,511.00
2023-04-07T04:56:32.438Z,512.00
2023-04-07T04:57:32.518Z,513.00
2023-04-07T04:58:33.103Z,514.00
2023-04-07T04:59:32.562Z,512.00
2023-04-07T05:00:32.675Z,512.00
2023-04-07T05:01:33.649Z,514.00
2023-04-07T05:02:32.912Z,515.00
2023-04-07T05:03:33.097Z,514.00
2023-04-07T05:04:33.123Z,517.00
2023-04-07T05:05:33.665Z,518.00
2023-04-07T05:06:32.900Z,518.00
2023-04-07T05:07:32.990Z,519.00
2023-04-07T05:08:32.956Z,522.00
2023-04-07T05:09:33.029Z,517.00
2023-04-07T05:10:32.973Z,517.00
2023-04-07T05:11:32.997Z,511.00
2023-04-07T05:12:32.954Z,513.00
2023-04-07T05:13:33.021Z,511.00
2023-04-07T05:14:32.998Z,510.00
2023-04-07T05:15:33.136Z,511.00
2023-04-07T05:16:32.977Z,511.00
2023-04-07T05:17:33.018Z,509.00
2023-04-07T05:18:33.042Z,509.00
2023-04-07T05:19:33.086Z,509.00
2023-04-07T05:20:33.178Z,509.00
2023-04-07T05:21:33.122Z,508.00
2023-04-07T05:22:33.139Z,508.00
2023-04-07T05:23:33.209Z,509.00
2023-04-07T05:24:34.152Z,508.00
2023-04-07T05:25:33.268Z,508.00
2023-04-07T05:26:33.255Z,512.00
2023-04-07T05:27:33.238Z,506.00
2023-04-07T05:28:33.302Z,503.00
2023-04-07T05:29:33.372Z,502.00
2023-04-07T05:30:33.363Z,502.00
2023-04-07T05:31:33.492Z,503.00
2023-04-07T05:32:33.442Z,505.00
2023-04-07T05:33:33.447Z,505.00
2023-04-07T05:34:33.458Z,506.00
2023-04-07T05:35:33.472Z,506.00
2023-04-07T05:36:33.472Z,505.00
2023-04-07T05:37:33.531Z,504.00
2023-04-07T05:38:33.625Z,503.00
2023-04-07T05:39:33.566Z,502.00
2023-04-07T05:40:35.047Z,501.00
2023-04-07T05:41:33.586Z,503.00
2023-04-07T05:42:33.560Z,503.00
2023-04-07T05:43:33.563Z,500.00
2023-04-07T05:44:33.595Z,499.00
2023-04-07T05:45:33.681Z,499.00
2023-04-07T05:46:33.523Z,498.00
2023-04-07T05:47:33.702Z,497.00
2023-04-07T05:48:33.502Z,497.00
2023-04-07T05:49:33.566Z,496.00
2023-04-07T05:50:33.525Z,495.00
2023-04-07T05:51:33.508Z,495.00
2023-04-07T05:52:33.602Z,498.00
2023-04-07T05:53:33.499Z,497.00
2023-04-07T05:54:33.484Z,498.00
2023-04-07T05:55:33.514Z,498.00
2023-04-07T05:56:33.455Z,486.00
2023-04-07T05:57:33.478Z,497.00
2023-04-07T05:58:33.492Z,497.00
2023-04-07T05:59:33.546Z,500.00
2023-04-07T06:00:33.440Z,486.00
2023-04-07T06:01:33.416Z,486.00
2023-04-07T06:02:33.515Z,489.00
2023-04-07T06:03:33.741Z,487.00
2023-04-07T06:04:33.411Z,488.00
2023-04-07T06:05:33.418Z,487.00
2023-04-07T06:06:33.393Z,490.00
2023-04-07T06:07:34.125Z,491.00
2023-04-07T06:08:33.375Z,486.00
2023-04-07T06:09:33.342Z,485.00
2023-04-07T06:10:33.387Z,489.00
2023-04-07T06:11:33.378Z,487.00
2023-04-07T06:12:33.405Z,487.00
2023-04-07T06:13:33.636Z,489.00
2023-04-07T06:14:33.341Z,489.00
2023-04-07T06:15:33.345Z,488.00
2023-04-07T06:16:33.360Z,487.00
2023-04-07T06:17:34.171Z,489.00
2023-04-07T06:18:33.309Z,509.00
2023-04-07T06:19:34.195Z,490.00
2023-04-07T06:20:33.308Z,492.00
2023-04-07T06:21:33.314Z,493.00
2023-04-07T06:22:33.294Z,494.00
2023-04-07T06:23:33.354Z,494.00
2023-04-07T06:24:33.354Z,491.00
2023-04-07T06:25:33.294Z,490.00
2023-04-07T06:26:33.249Z,497.00
2023-04-07T06:27:33.241Z,492.00
2023-04-07T06:28:33.233Z,471.00
2023-04-07T06:29:33.259Z,485.00
2023-04-07T06:30:33.347Z,492.00
2023-04-07T06:31:33.242Z,494.00
2023-04-07T06:32:33.270Z,475.00
2023-04-07T06:33:33.175Z,476.00
2023-04-07T06:34:33.192Z,488.00
2023-04-07T06:35:33.161Z,488.00
2023-04-07T06:36:33.243Z,494.00
2023-04-07T06:37:33.145Z,497.00
2023-04-07T06:38:34.193Z,494.00
2023-04-07T06:39:33.179Z,491.00
2023-04-07T06:40:33.147Z,492.00
2023-04-07T06:41:33.172Z,493.00
2023-04-07T06:42:33.140Z,478.00
2023-04-07T06:43:33.165Z,490.00
2023-04-07T06:44:33.121Z,491.00
2023-04-07T06:45:33.136Z,497.00
2023-04-07T06:46:33.131Z,496.00
2023-04-07T06:47:33.118Z,500.00
2023-04-07T06:48:33.219Z,502.00
2023-04-07T06:49:34.267Z,504.00
2023-04-07T06:50:33.287Z,499.00
2023-04-07T06:51:34.130Z,495.00
2023-04-07T06:52:33.429Z,496.00
2023-04-07T06:53:33.394Z,496.00
2023-04-07T06:54:33.415Z,493.00
2023-04-07T06:55:33.479Z,522.00
2023-04-07T06:56:34.163Z,477.00
2023-04-07T06:57:33.516Z,484.00
2023-04-07T06:58:36.203Z,486.00
2023-04-07T06:59:33.554Z,497.00
2023-04-07T07:00:34.142Z,490.00
2023-04-07T07:01:33.647Z,502.00
2023-04-07T07:02:33.667Z,486.00
2023-04-07T07:03:33.596Z,489.00
2023-04-07T07:04:33.699Z,495.00
2023-04-07T07:05:33.576Z,493.00
2023-04-07T07:06:33.530Z,494.00
2023-04-07T07:07:33.497Z,495.00
2023-04-07T07:08:33.567Z,494.00
2023-04-07T07:09:33.534Z,493.00
2023-04-07T07:10:33.558Z,490.00
2023-04-07T07:11:33.472Z,487.00
2023-04-07T07:12:34.159Z,491.00
2023-04-07T07:13:33.507Z,491.00
2023-04-07T07:14:34.197Z,473.00
2023-04-07T07:15:33.620Z,483.00
2023-04-07T07:16:34.176Z,477.00
2023-04-07T07:17:33.488Z,483.00
2023-04-07T07:18:33.452Z,478.00
2023-04-07T07:19:33.427Z,478.00
2023-04-07T07:20:33.488Z,483.00
2023-04-07T07:21:33.419Z,485.00
2023-04-07T07:22:33.427Z,481.00
2023-04-07T07:23:33.498Z,481.00
2023-04-07T07:24:33.469Z,482.00
2023-04-07T07:25:33.685Z,480.00
2023-04-07T07:26:34.211Z,481.00
2023-04-07T07:27:33.454Z,479.00
2023-04-07T07:28:34.151Z,447.00
2023-04-07T07:29:33.401Z,466.00
2023-04-07T07:30:33.367Z,471.00
2023-04-07T07:31:33.385Z,475.00
2023-04-07T07:32:33.404Z,457.00
2023-04-07T07:33:33.370Z,470.00
2023-04-07T07:34:33.434Z,470.00
2023-04-07T07:35:33.306Z,470.00
2023-04-07T07:36:33.788Z,472.00
2023-04-07T07:37:33.436Z,473.00
2023-04-07T07:38:35.156Z,473.00
2023-04-07T07:39:33.375Z,476.00
2023-04-07T07:40:38.156Z,476.00
2023-04-07T07:41:33.279Z,476.00
2023-04-07T07:42:33.284Z,478.00
2023-04-07T07:43:33.346Z,474.00
2023-04-07T07:44:33.269Z,477.00
2023-04-07T07:45:33.765Z,479.00
2023-04-07T07:46:33.258Z,478.00
2023-04-07T07:47:33.309Z,475.00
2023-04-07T07:48:33.356Z,475.00
2023-04-07T07:49:33.222Z,476.00
2023-04-07T07:50:33.292Z,482.00
2023-04-07T07:51:33.251Z,471.00
2023-04-07T07:52:33.237Z,471.00
2023-04-07T07:53:33.341Z,477.00
2023-04-07T07:54:33.269Z,479.00
2023-04-07T07:55:34.192Z,474.00
2023-04-07T07:56:33.349Z,482.00
2023-04-07T07:57:34.185Z,482.00
2023-04-07T07:58:33.385Z,484.00
2023-04-07T07:59:33.558Z,483.00
2023-04-07T08:00:33.498Z,475.00
2023-04-07T08:01:33.590Z,483.00
2023-04-07T08:02:33.653Z,483.00
2023-04-07T08:03:33.763Z,482.00
2023-04-07T08:04:33.710Z,481.00
2023-04-07T08:05:34.768Z,478.00
2023-04-07T08:06:33.723Z,477.00
2023-04-07T08:07:33.770Z,473.00
2023-04-07T08:08:33.740Z,472.00
2023-04-07T08:09:33.811Z,471.00
2023-04-07T08:10:33.798Z,471.00
2023-04-07T08:11:33.786Z,472.00
2023-04-07T08:12:33.798Z,471.00
2023-04-07T08:13:33.863Z,469.00
2023-04-07T08:14:33.959Z,470.00
2023-04-07T08:15:33.953Z,472.00
2023-04-07T08:16:34.067Z,473.00
2023-04-07T08:17:34.067Z,474.00
2023-04-07T08:18:34.054Z,475.00
2023-04-07T08:19:34.746Z,477.00
2023-04-07T08:20:34.196Z,474.00
2023-04-07T08:21:34.169Z,472.00
2023-04-07T08:22:34.207Z,470.00
2023-04-07T08:23:34.218Z,449.00
2023-04-07T08:24:34.413Z,469.00
2023-04-07T08:25:34.306Z,471.00
2023-04-07T08:26:34.307Z,468.00
2023-04-07T08:27:34.345Z,466.00
2023-04-07T08:28:34.400Z,466.00
2023-04-07T08:29:35.176Z,466.00
2023-04-07T08:30:34.523Z,471.00
2023-04-07T08:31:34.565Z,470.00
2023-04-07T08:32:34.617Z,471.00
2023-04-07T08:33:34.801Z,472.00
2023-04-07T08:34:34.765Z,472.00
2023-04-07T08:35:34.713Z,472.00
2023-04-07T08:36:35.740Z,473.00
2023-04-07T08:37:34.772Z,470.00
2023-04-07T08:38:34.806Z,467.00
2023-04-07T08:39:34.862Z,468.00
2023-04-07T08:40:34.895Z,466.00
2023-04-07T08:41:34.904Z,468.00
2023-04-07T08:42:34.979Z,469.00
2023-04-07T08:43:34.950Z,473.00
2023-04-07T08:44:35.006Z,473.00
2023-04-07T08:45:34.999Z,473.00
2023-04-07T08:46:34.996Z,470.00
2023-04-07T08:47:35.080Z,429.00
2023-04-07T08:48:35.061Z,431.00
2023-04-07T08:49:35.092Z,458.00
2023-04-07T08:50:35.245Z,444.00
2023-04-07T08:51:35.149Z,468.00
2023-04-07T08:52:35.188Z,469.00
2023-04-07T08:53:35.155Z,474.00
2023-04-07T08:54:35.192Z,472.00
2023-04-07T08:55:35.187Z,472.00
2023-04-07T08:56:38.179Z,471.00
2023-04-07T08:57:35.204Z,475.00
2023-04-07T08:58:35.198Z,472.00
2023-04-07T08:59:35.180Z,469.00
2023-04-07T09:00:35.839Z,471.00
2023-04-07T09:01:35.615Z,473.00
2023-04-07T09:02:35.565Z,472.00
2023-04-07T09:03:35.270Z,475.00
2023-04-07T09:04:35.157Z,475.00
2023-04-07T09:05:35.121Z,470.00
2023-04-07T09:06:35.129Z,471.00
2023-04-07T09:07:35.083Z,472.00
2023-04-07T09:08:35.135Z,472.00
2023-04-07T09:09:35.115Z,473.00
2023-04-07T09:10:35.095Z,472.00
2023-04-07T09:11:35.212Z,471.00
2023-04-07T09:12:35.103Z,473.00
2023-04-07T09:13:35.063Z,473.00
2023-04-07T09:14:35.011Z,475.00
2023-04-07T09:15:36.704Z,476.00
2023-04-07T09:16:35.055Z,476.00
2023-04-07T09:17:35.082Z,465.00
2023-04-07T09:18:35.004Z,467.00
2023-04-07T09:19:35.054Z,466.00
2023-04-07T09:20:35.019Z,468.00
2023-04-07T09:21:35.755Z,467.00
2023-04-07T09:22:35.031Z,471.00
2023-04-07T09:23:35.006Z,471.00
2023-04-07T09:24:34.965Z,473.00
2023-04-07T09:25:35.086Z,487.00
2023-04-07T09:26:35.706Z,476.00
2023-04-07T09:27:34.955Z,477.00
2023-04-07T09:28:35.052Z,475.00
2023-04-07T09:29:34.941Z,474.00
2023-04-07T09:30:34.967Z,473.00
2023-04-07T09:31:34.979Z,475.00
2023-04-07T09:32:34.956Z,479.00
2023-04-07T09:33:34.980Z,472.00
2023-04-07T09:34:34.945Z,467.00
2023-04-07T09:35:41.693Z,473.00
2023-04-07T09:36:34.943Z,486.00
2023-04-07T09:37:34.906Z,475.00
2023-04-07T09:38:36.719Z,477.00
2023-04-07T09:39:35.774Z,474.00
2023-04-07T09:40:34.920Z,477.00
2023-04-07T09:41:35.014Z,478.00
2023-04-07T09:42:34.913Z,474.00
2023-04-07T09:43:35.674Z,474.00
2023-04-07T09:44:34.876Z,468.00
2023-04-07T09:45:36.170Z,469.00
2023-04-07T09:46:34.859Z,470.00
2023-04-07T09:47:35.738Z,470.00
2023-04-07T09:48:34.786Z,474.00
2023-04-07T09:49:36.671Z,466.00
2023-04-07T09:50:34.835Z,469.00
2023-04-07T09:51:34.810Z,473.00
2023-04-07T09:52:34.881Z,470.00
2023-04-07T09:53:34.891Z,466.00
2023-04-07T09:54:35.262Z,483.00
2023-04-07T09:55:34.970Z,472.00
2023-04-07T09:56:35.715Z,471.00
2023-04-07T09:57:35.071Z,467.00
2023-04-07T09:58:36.778Z,517.00
2023-04-07T09:59:35.155Z,441.00
2023-04-07T10:00:35.115Z,455.00
2023-04-07T10:01:35.165Z,461.00
2023-04-07T10:02:36.807Z,460.00
2023-04-07T10:03:35.808Z,463.00
2023-04-07T10:04:35.242Z,463.00
2023-04-07T10:05:35.241Z,464.00
2023-04-07T10:06:35.283Z,466.00
2023-04-07T10:07:35.260Z,459.00
2023-04-07T10:08:35.347Z,464.00
2023-04-07T10:09:35.317Z,473.00
2023-04-07T10:10:35.389Z,469.00
2023-04-07T10:11:35.385Z,465.00
2023-04-07T10:12:35.358Z,462.00
2023-04-07T10:13:35.388Z,462.00
2023-04-07T10:14:35.451Z,460.00
2023-04-07T10:15:35.441Z,463.00
2023-04-07T10:16:35.582Z,466.00
2023-04-07T10:17:35.583Z,468.00
2023-04-07T10:18:35.631Z,470.00
2023-04-07T10:19:35.756Z,476.00
2023-04-07T10:20:35.669Z,467.00
2023-04-07T10:21:36.067Z,463.00
2023-04-07T10:22:35.732Z,461.00
2023-04-07T10:23:36.701Z,465.00
2023-04-07T10:24:35.874Z,469.00
2023-04-07T10:25:35.833Z,473.00
2023-04-07T10:26:35.884Z,468.00
2023-04-07T10:27:36.161Z,470.00
2023-04-07T10:28:35.898Z,470.00
2023-04-07T10:29:35.985Z,470.00
2023-04-07T10:30:36.902Z,466.00
2023-04-07T10:31:37.840Z,411.00
2023-04-07T10:32:36.097Z,447.00
2023-04-07T10:33:35.997Z,456.00
2023-04-07T10:34:36.011Z,467.00
2023-04-07T10:35:36.138Z,466.00
2023-04-07T10:36:36.777Z,466.00
2023-04-07T10:37:36.141Z,468.00
2023-04-07T10:38:36.190Z,468.00
2023-04-07T10:39:36.214Z,468.00
2023-04-07T10:40:36.413Z,466.00
2023-04-07T10:41:37.287Z,469.00
2023-04-07T10:42:36.415Z,470.00
2023-04-07T10:43:36.334Z,467.00
2023-04-07T10:44:36.445Z,465.00
2023-04-07T10:45:36.443Z,462.00
2023-04-07T10:46:36.579Z,467.00
2023-04-07T10:47:36.630Z,460.00
2023-04-07T10:48:36.491Z,464.00
2023-04-07T10:49:36.516Z,464.00
2023-04-07T10:50:37.318Z,467.00
2023-04-07T10:51:36.587Z,469.00
2023-04-07T10:52:36.697Z,467.00
2023-04-07T10:53:36.671Z,466.00
2023-04-07T10:54:36.691Z,466.00
2023-04-07T10:55:36.722Z,470.00
2023-04-07T10:56:36.699Z,582.00
2023-04-07T10:57:36.751Z,424.00
2023-04-07T10:58:36.764Z,458.00
2023-04-07T10:59:36.835Z,453.00
2023-04-07T11:00:37.802Z,455.00
2023-04-07T11:01:36.975Z,459.00
2023-04-07T11:02:37.164Z,463.00
2023-04-07T11:03:37.061Z,419.00
2023-04-07T11:04:37.101Z,451.00
2023-04-07T11:05:36.999Z,462.00
2023-04-07T11:06:37.048Z,465.00
2023-04-07T11:07:37.156Z,461.00
2023-04-07T11:08:37.095Z,479.00
2023-04-07T11:09:37.126Z,451.00
2023-04-07T11:10:37.296Z,457.00
2023-04-07T11:11:37.220Z,461.00
2023-04-07T11:12:37.260Z,463.00
2023-04-07T11:13:37.299Z,464.00
2023-04-07T11:14:37.358Z,463.00
2023-04-07T11:15:40.236Z,465.00
2023-04-07T11:16:38.208Z,465.00
2023-04-07T11:17:37.365Z,466.00
2023-04-07T11:18:37.307Z,468.00
2023-04-07T11:19:37.277Z,468.00
2023-04-07T11:20:37.388Z,467.00
2023-04-07T11:21:37.386Z,465.00
2023-04-07T11:22:37.282Z,466.00
2023-04-07T11:23:37.248Z,463.00
2023-04-07T11:24:37.279Z,463.00
2023-04-07T11:25:37.269Z,463.00
2023-04-07T11:26:38.322Z,464.00
2023-04-07T11:27:37.225Z,465.00
2023-04-07T11:28:37.307Z,463.00
2023-04-07T11:29:37.218Z,463.00
2023-04-07T11:30:37.225Z,462.00
2023-04-07T11:31:37.231Z,461.00
2023-04-07T11:32:37.230Z,460.00
2023-04-07T11:33:37.179Z,462.00
2023-04-07T11:34:37.203Z,465.00
2023-04-07T11:35:37.190Z,469.00
2023-04-07T11:36:37.191Z,466.00
2023-04-07T11:37:37.165Z,467.00
2023-04-07T11:38:37.175Z,465.00
2023-04-07T11:39:37.137Z,469.00
2023-04-07T11:40:37.276Z,464.00
2023-04-07T11:41:37.135Z,464.00
2023-04-07T11:42:37.150Z,468.00
2023-04-07T11:43:37.110Z,463.00
2023-04-07T11:44:37.116Z,462.00
2023-04-07T11:45:37.111Z,465.00
2023-04-07T11:46:37.173Z,471.00
2023-04-07T11:47:37.185Z,447.00
2023-04-07T11:48:37.720Z,458.00
2023-04-07T11:49:37.078Z,467.00
2023-04-07T11:50:37.147Z,463.00
2023-04-07T11:51:37.741Z,468.00
2023-04-07T11:52:37.181Z,473.00
2023-04-07T11:53:37.195Z,473.00
2023-04-07T11:54:37.221Z,473.00
2023-04-07T11:55:38.724Z,473.00
2023-04-07T11:56:38.286Z,471.00
2023-04-07T11:57:37.260Z,469.00
2023-04-07T11:58:37.260Z,469.00
2023-04-07T11:59:37.266Z,472.00
2023-04-07T12:00:37.397Z,470.00
2023-04-07T12:01:37.387Z,468.00
2023-04-07T12:02:37.665Z,476.00
2023-04-07T12:03:38.545Z,476.00
2023-04-07T12:04:37.590Z,468.00
2023-04-07T12:05:37.579Z,472.00
2023-04-07T12:06:37.557Z,461.00
2023-04-07T12:07:37.525Z,456.00
2023-04-07T12:08:37.526Z,458.00
2023-04-07T12:09:37.713Z,466.00
2023-04-07T12:10:37.565Z,472.00
2023-04-07T12:11:40.249Z,473.00
2023-04-07T12:12:37.599Z,475.00
2023-04-07T12:13:37.570Z,477.00
2023-04-07T12:14:37.539Z,473.00
2023-04-07T12:15:37.587Z,472.00
2023-04-07T12:16:37.834Z,468.00
2023-04-07T12:17:37.574Z,468.00
2023-04-07T12:18:37.565Z,466.00
2023-04-07T12:19:37.580Z,465.00
2023-04-07T12:20:37.832Z,462.00
2023-04-07T12:21:37.510Z,463.00
2023-04-07T12:22:37.480Z,463.00
2023-04-07T12:23:37.541Z,467.00
2023-04-07T12:24:37.599Z,465.00
2023-04-07T12:25:37.543Z,464.00
2023-04-07T12:26:37.555Z,450.00
2023-04-07T12:27:43.224Z,453.00
2023-04-07T12:28:38.500Z,455.00